aviador You're here:

KMSN Decoded Metar

MADISON in WI, USA
Report Time2017-12-16 17:53:00
UTC Time2017-12-16 18:51:55
Flight Rules vfr VFR
Wind090° at 06 kt
W.Decomp.*RWY 14: 4.1 kt HW 4.4 kt LCW
RWY 03: 2.7 kt HW 5.3 kt RCW
RWY 18: 0.3 kt HW 6 kt LCW
W.Rank090° ranks 33
Current wind is below 090° avg. (7.0)
Visibility9999 m
Phenomena:N/A
Clouds:Few 015 Hf
Few 200 Hf
Broken 250 Hf
Expected CloudBase > 2,400 ft AGL from Temp-Dew spread
Ceiling25,000 ft
Temp03°C (ISA -10)
Dew Point-3°C (65% RH)
AAT-1.5°C
QNH1012 hPa
Density Alt-285 ft
Elevation856 ft
Report Wrong Elevation
Raw Report
METAR KMSN 161753Z 09006KT 10SM FEW015 FEW200 BKN250 03/M03 A2988 RMK
AO2 SLP125 T00331028 10039 21022 51010=

Extra information for KMSN:More info

Metar Taf Metar & Taf Last 4 Metars F.Rules Stats Wind Profile Meteogram Temp Stats Airport Information Weather charts Add Link Nearby VenuesMetar ALERT Operation Metar Decoded Social comments

AIRNAV info for KMSN